USCM

Details ICAO USCM (MQF)
Name MAGNITOGORSK
Region Russia
Timezone Asia/Yekaterinburg (UTC+5.0)
Plans Departing 36
Arriving 27
Stats Elevation 1,431 ft / 436 m (AMSL)
Location 53.393132° 58.755661°
Runways 1
Magnetic Variation 12.557° E
Sunrise 2018-05-26 23:50:08 UTC / 2018-05-27 04:50:08 Local
Sunset 2018-05-27 16:16:58 UTC / 2018-05-27 21:16:58 Local
Advertisement - Login to hide

Runways

ID Width Length Bearing (true) Bearing (mag) Surface Threshold Offset Overrun Length
01 148 ft / 45 m 10,648 ft / 3,246 m 16.20° 3.64° Concrete 0 ft / 0 m 140 ft / 43 m
19 148 ft / 45 m 10,648 ft / 3,246 m 196.21° 183.65° Concrete 0 ft / 0 m 140 ft / 43 m

Map

Weather


0- 5 10 15 20 25 30 35+ Temperature / ° C

Clouds and Precipitation
Forecast for 2018-05-27 12:00 UTC. Updated 3 hours ago

Ground ~20,000 ft ~40,000 ft Winds

METAR

USCM 271400Z 27008MPS 9999 FEW040 17/00 Q1016 R18/090065 TEMPO 30015MPS RMK QFE725

TAF

Not found

Frequencies

Tower 124.00 MHz TWR
Tower 120.80 MHz TWR
Warning: Do not use this data for real-world aviation or navigation. No guarantee of current accuracy is given.